createdAt,value
2023-05-01T00:04:16.998Z,7.7
2023-05-01T00:19:59.451Z,8.2
2023-05-01T00:35:42.140Z,7.9
2023-05-01T00:51:24.920Z,8.7
2023-05-01T01:07:07.809Z,8.6
2023-05-01T01:22:50.376Z,8.6
2023-05-01T01:38:32.925Z,8.1
2023-05-01T01:54:15.549Z,8.3
2023-05-01T02:09:58.610Z,10.3
2023-05-01T02:25:41.565Z,8.5
2023-05-01T02:41:24.010Z,7.5
2023-05-01T02:57:06.125Z,6.7
2023-05-01T03:12:49.201Z,6.6
2023-05-01T03:28:31.883Z,6.3
2023-05-01T03:44:14.952Z,6.5
2023-05-01T03:59:57.441Z,6.9
2023-05-01T04:15:40.222Z,6.1
2023-05-01T04:31:22.969Z,5.5
2023-05-01T04:47:05.225Z,5.2
2023-05-01T05:02:47.802Z,4.9
2023-05-01T05:18:30.556Z,4.4
2023-05-01T05:34:12.684Z,4.1
2023-05-01T05:49:55.346Z,3.5
2023-05-01T06:05:37.506Z,3.1
2023-05-01T06:21:20.285Z,3.4
2023-05-01T06:37:02.412Z,3.2
2023-05-01T06:52:44.544Z,3
2023-05-01T07:24:09.323Z,3.6
2023-05-01T07:39:51.738Z,3.1
2023-05-01T07:55:34.257Z,2.9
2023-05-01T08:26:59.088Z,2.7
2023-05-01T08:42:41.870Z,2.7
2023-05-01T08:58:24.336Z,2.4
2023-05-01T09:14:07.114Z,2.4
2023-05-01T09:29:49.365Z,2.7
2023-05-01T09:45:31.399Z,2.8
2023-05-01T10:16:57.048Z,3
2023-05-01T10:32:39.017Z,3.1
2023-05-01T10:48:21.311Z,4.3
2023-05-01T11:04:03.156Z,2.9
2023-05-01T11:19:45.989Z,3.4
2023-05-01T11:35:28.462Z,3.3
2023-05-01T11:51:10.857Z,2.9
2023-05-01T12:06:53.243Z,2.7
2023-05-01T12:22:36.063Z,2.9
2023-05-01T12:38:18.791Z,2.8
2023-05-01T12:39:06.047Z,2.9
2023-05-01T12:54:48.689Z,2.8
2023-05-01T13:10:30.981Z,2.7
2023-05-01T13:26:12.990Z,2.7
2023-05-01T13:41:55.392Z,3
2023-05-01T13:57:37.540Z,2.8
2023-05-01T14:29:02.297Z,3.2
2023-05-01T14:44:44.375Z,3.4
2023-05-01T15:00:27.156Z,3.8
2023-05-01T15:16:09.446Z,3.5
2023-05-01T15:31:51.622Z,3.5
2023-05-01T15:47:33.799Z,3.5
2023-05-01T16:03:16.690Z,4
2023-05-01T16:18:58.937Z,4.9
2023-05-01T16:34:41.447Z,4
2023-05-01T16:50:24.188Z,4.8
2023-05-01T17:06:06.784Z,5.2
2023-05-01T17:21:49.058Z,5
2023-05-01T17:53:14.222Z,5.4
2023-05-01T18:08:56.577Z,5.1
2023-05-01T18:24:39.449Z,5.6
2023-05-01T18:40:22.043Z,6.6
2023-05-01T18:56:04.598Z,8
2023-05-01T19:11:47.395Z,7.7
2023-05-01T19:27:30.021Z,8.7
2023-05-01T19:58:55.805Z,13.2
2023-05-01T20:14:38.535Z,9.6
2023-05-01T20:30:21.388Z,11.6
2023-05-01T20:46:03.638Z,10.9
2023-05-01T21:01:46.322Z,10.7
2023-05-01T21:17:28.794Z,11.5
2023-05-01T21:33:11.474Z,11.8
2023-05-01T21:48:54.011Z,11.1
2023-05-01T22:04:36.735Z,10.2
2023-05-01T22:20:19.655Z,10.3
2023-05-01T22:36:02.546Z,10.6
2023-05-01T22:51:45.268Z,11
2023-05-01T23:23:10.820Z,16.4
2023-05-01T23:38:53.064Z,15.8
2023-05-01T23:54:36.151Z,15.9
